sensor_id;sensor_type;location;lat;lon;timestamp;P1;durP1;ratioP1;P2;durP2;ratioP2
21014;SDS011;19207;-23.482;-46.500;2023-03-21T00:00:56;28.38;;;18.25;;
21014;SDS011;19207;-23.482;-46.500;2023-03-21T00:03:43;40.35;;;19.95;;
21014;SDS011;19207;-23.482;-46.500;2023-03-21T00:06:31;31.42;;;15.15;;
21014;SDS011;19207;-23.482;-46.500;2023-03-21T00:09:18;29.42;;;13.73;;
21014;SDS011;19207;-23.482;-46.500;2023-03-21T00:12:06;27.42;;;13.23;;
21014;SDS011;19207;-23.482;-46.500;2023-03-21T00:14:54;30.12;;;12.80;;
21014;SDS011;19207;-23.482;-46.500;2023-03-21T00:17:48;24.92;;;11.90;;
21014;SDS011;19207;-23.482;-46.500;2023-03-21T00:20:35;25.23;;;12.02;;
21014;SDS011;19207;-23.482;-46.500;2023-03-21T00:23:22;25.05;;;12.88;;
21014;SDS011;19207;-23.482;-46.500;2023-03-21T00:26:09;20.15;;;11.85;;
21014;SDS011;19207;-23.482;-46.500;2023-03-21T00:28:56;23.62;;;11.75;;
21014;SDS011;19207;-23.482;-46.500;2023-03-21T00:31:42;23.73;;;12.05;;
21014;SDS011;19207;-23.482;-46.500;2023-03-21T00:34:29;25.75;;;11.70;;
21014;SDS011;19207;-23.482;-46.500;2023-03-21T00:37:17;27.50;;;12.07;;
21014;SDS011;19207;-23.482;-46.500;2023-03-21T00:40:05;38.88;;;12.00;;
21014;SDS011;19207;-23.482;-46.500;2023-03-21T00:42:54;33.72;;;12.77;;
21014;SDS011;19207;-23.482;-46.500;2023-03-21T00:45:45;20.88;;;12.15;;
21014;SDS011;19207;-23.482;-46.500;2023-03-21T00:48:32;21.77;;;11.77;;
21014;SDS011;19207;-23.482;-46.500;2023-03-21T00:51:19;29.77;;;12.48;;
21014;SDS011;19207;-23.482;-46.500;2023-03-21T00:54:11;29.77;;;12.75;;
21014;SDS011;19207;-23.482;-46.500;2023-03-21T00:56:58;26.70;;;12.00;;
21014;SDS011;19207;-23.482;-46.500;2023-03-21T00:59:48;18.55;;;11.27;;
21014;SDS011;19207;-23.482;-46.500;2023-03-21T01:02:35;23.05;;;11.35;;
21014;SDS011;19207;-23.482;-46.500;2023-03-21T01:05:23;27.40;;;11.07;;
21014;SDS011;19207;-23.482;-46.500;2023-03-21T01:08:33;25.25;;;10.77;;
21014;SDS011;19207;-23.482;-46.500;2023-03-21T01:11:22;50.17;;;12.25;;
21014;SDS011;19207;-23.482;-46.500;2023-03-21T01:14:10;27.80;;;11.32;;
21014;SDS011;19207;-23.482;-46.500;2023-03-21T01:16:56;28.98;;;11.85;;
21014;SDS011;19207;-23.482;-46.500;2023-03-21T01:19:43;24.55;;;11.27;;
21014;SDS011;19207;-23.482;-46.500;2023-03-21T01:22:30;24.05;;;11.20;;
21014;SDS011;19207;-23.482;-46.500;2023-03-21T01:25:17;17.92;;;10.73;;
21014;SDS011;19207;-23.482;-46.500;2023-03-21T01:28:05;24.50;;;11.70;;
21014;SDS011;19207;-23.482;-46.500;2023-03-21T01:30:51;25.80;;;12.37;;
21014;SDS011;19207;-23.482;-46.500;2023-03-21T01:33:38;23.48;;;12.25;;
21014;SDS011;19207;-23.482;-46.500;2023-03-21T01:36:26;33.78;;;13.43;;
21014;SDS011;19207;-23.482;-46.500;2023-03-21T01:39:13;35.72;;;14.18;;
21014;SDS011;19207;-23.482;-46.500;2023-03-21T01:42:00;29.25;;;14.07;;
21014;SDS011;19207;-23.482;-46.500;2023-03-21T01:44:51;43.28;;;19.30;;
21014;SDS011;19207;-23.482;-46.500;2023-03-21T01:47:38;37.92;;;19.08;;
21014;SDS011;19207;-23.482;-46.500;2023-03-21T01:50:27;42.40;;;17.92;;
21014;SDS011;19207;-23.482;-46.500;2023-03-21T01:53:16;41.17;;;17.67;;
21014;SDS011;19207;-23.482;-46.500;2023-03-21T01:56:10;42.80;;;18.45;;
21014;SDS011;19207;-23.482;-46.500;2023-03-21T01:59:11;41.78;;;17.08;;
21014;SDS011;19207;-23.482;-46.500;2023-03-21T02:02:03;32.08;;;13.45;;
21014;SDS011;19207;-23.482;-46.500;2023-03-21T02:04:52;14.10;;;8.98;;
21014;SDS011;19207;-23.482;-46.500;2023-03-21T02:08:09;17.52;;;9.95;;
21014;SDS011;19207;-23.482;-46.500;2023-03-21T02:11:19;23.70;;;10.80;;
21014;SDS011;19207;-23.482;-46.500;2023-03-21T02:14:31;17.60;;;;;
21014;SDS011;19207;-23.482;-46.500;2023-03-21T02:17:35;14.27;;;8.38;;
21014;SDS011;19207;-23.482;-46.500;2023-03-21T02:20:39;14.35;;;7.40;;
21014;SDS011;19207;-23.482;-46.500;2023-03-21T02:33:17;24.33;;;9.40;;
21014;SDS011;19207;-23.482;-46.500;2023-03-21T02:46:22;32.38;;;11.43;;
21014;SDS011;19207;-23.482;-46.500;2023-03-21T02:52:47;31.15;;;12.85;;
21014;SDS011;19207;-23.482;-46.500;2023-03-21T02:56:20;33.55;;;12.68;;
21014;SDS011;19207;-23.482;-46.500;2023-03-21T02:59:24;29.60;;;12.55;;
21014;SDS011;19207;-23.482;-46.500;2023-03-21T03:02:26;29.58;;;11.85;;
21014;SDS011;19207;-23.482;-46.500;2023-03-21T03:05:32;28.45;;;11.45;;
21014;SDS011;19207;-23.482;-46.500;2023-03-21T03:11:49;29.00;;;13.55;;
21014;SDS011;19207;-23.482;-46.500;2023-03-21T03:14:51;42.65;;;18.52;;
21014;SDS011;19207;-23.482;-46.500;2023-03-21T03:17:53;39.85;;;21.92;;
21014;SDS011;19207;-23.482;-46.500;2023-03-21T03:24:28;28.35;;;14.45;;
21014;SDS011;19207;-23.482;-46.500;2023-03-21T03:27:28;28.83;;;14.57;;
21014;SDS011;19207;-23.482;-46.500;2023-03-21T03:30:32;21.62;;;11.90;;
21014;SDS011;19207;-23.482;-46.500;2023-03-21T03:33:26;22.48;;;12.13;;
21014;SDS011;19207;-23.482;-46.500;2023-03-21T03:36:50;28.25;;;12.05;;
21014;SDS011;19207;-23.482;-46.500;2023-03-21T03:39:48;22.05;;;11.30;;
21014;SDS011;19207;-23.482;-46.500;2023-03-21T03:43:04;27.10;;;13.65;;
21014;SDS011;19207;-23.482;-46.500;2023-03-21T03:46:17;26.20;;;12.32;;
21014;SDS011;19207;-23.482;-46.500;2023-03-21T03:49:25;30.00;;;13.82;;
21014;SDS011;19207;-23.482;-46.500;2023-03-21T03:55:19;20.12;;;10.98;;
21014;SDS011;19207;-23.482;-46.500;2023-03-21T03:58:10;30.52;;;11.32;;
21014;SDS011;19207;-23.482;-46.500;2023-03-21T04:01:00;22.87;;;10.65;;
21014;SDS011;19207;-23.482;-46.500;2023-03-21T04:04:03;22.10;;;10.50;;
21014;SDS011;19207;-23.482;-46.500;2023-03-21T04:06:54;25.67;;;11.02;;
21014;SDS011;19207;-23.482;-46.500;2023-03-21T04:09:47;25.62;;;10.85;;
21014;SDS011;19207;-23.482;-46.500;2023-03-21T04:12:41;25.73;;;10.45;;
21014;SDS011;19207;-23.482;-46.500;2023-03-21T04:15:34;21.60;;;10.57;;
21014;SDS011;19207;-23.482;-46.500;2023-03-21T04:18:34;20.52;;;10.85;;
21014;SDS011;19207;-23.482;-46.500;2023-03-21T04:21:24;26.52;;;11.02;;
21014;SDS011;19207;-23.482;-46.500;2023-03-21T04:24:28;16.87;;;10.02;;
21014;SDS011;19207;-23.482;-46.500;2023-03-21T04:27:17;25.10;;;11.60;;
21014;SDS011;19207;-23.482;-46.500;2023-03-21T04:30:05;24.25;;;10.70;;
21014;SDS011;19207;-23.482;-46.500;2023-03-21T04:32:54;19.42;;;9.73;;
21014;SDS011;19207;-23.482;-46.500;2023-03-21T04:35:44;26.35;;;10.15;;
21014;SDS011;19207;-23.482;-46.500;2023-03-21T04:38:35;16.95;;;9.65;;
21014;SDS011;19207;-23.482;-46.500;2023-03-21T04:41:27;14.70;;;9.02;;
21014;SDS011;19207;-23.482;-46.500;2023-03-21T04:44:14;14.73;;;9.25;;
21014;SDS011;19207;-23.482;-46.500;2023-03-21T04:47:07;14.98;;;9.23;;
21014;SDS011;19207;-23.482;-46.500;2023-03-21T04:49:55;17.20;;;9.82;;
21014;SDS011;19207;-23.482;-46.500;2023-03-21T04:52:46;18.30;;;9.82;;
21014;SDS011;19207;-23.482;-46.500;2023-03-21T04:55:38;18.30;;;10.50;;
21014;SDS011;19207;-23.482;-46.500;2023-03-21T04:58:40;15.65;;;10.13;;
21014;SDS011;19207;-23.482;-46.500;2023-03-21T05:01:30;18.73;;;9.88;;
21014;SDS011;19207;-23.482;-46.500;2023-03-21T05:04:18;15.13;;;8.90;;
21014;SDS011;19207;-23.482;-46.500;2023-03-21T05:07:11;13.68;;;9.52;;
21014;SDS011;19207;-23.482;-46.500;2023-03-21T05:09:57;20.85;;;9.02;;
21014;SDS011;19207;-23.482;-46.500;2023-03-21T05:12:47;15.93;;;9.55;;
21014;SDS011;19207;-23.482;-46.500;2023-03-21T05:15:33;14.10;;;9.35;;
21014;SDS011;19207;-23.482;-46.500;2023-03-21T05:18:22;14.60;;;9.48;;
21014;SDS011;19207;-23.482;-46.500;2023-03-21T05:21:16;19.25;;;9.05;;
21014;SDS011;19207;-23.482;-46.500;2023-03-21T05:24:08;19.92;;;10.05;;
21014;SDS011;19207;-23.482;-46.500;2023-03-21T05:27:01;18.17;;;9.40;;
21014;SDS011;19207;-23.482;-46.500;2023-03-21T05:29:54;15.60;;;9.23;;
21014;SDS011;19207;-23.482;-46.500;2023-03-21T05:32:41;14.20;;;8.98;;
21014;SDS011;19207;-23.482;-46.500;2023-03-21T05:35:31;13.55;;;8.52;;
21014;SDS011;19207;-23.482;-46.500;2023-03-21T05:38:24;19.17;;;8.85;;
21014;SDS011;19207;-23.482;-46.500;2023-03-21T05:41:14;15.45;;;9.45;;
21014;SDS011;19207;-23.482;-46.500;2023-03-21T05:44:00;17.48;;;9.30;;
21014;SDS011;19207;-23.482;-46.500;2023-03-21T05:46:47;28.02;;;10.70;;
21014;SDS011;19207;-23.482;-46.500;2023-03-21T05:49:34;24.60;;;8.98;;
21014;SDS011;19207;-23.482;-46.500;2023-03-21T05:52:24;20.30;;;9.73;;
21014;SDS011;19207;-23.482;-46.500;2023-03-21T05:55:13;20.42;;;9.27;;
21014;SDS011;19207;-23.482;-46.500;2023-03-21T05:58:00;14.32;;;8.68;;
21014;SDS011;19207;-23.482;-46.500;2023-03-21T06:00:50;14.18;;;7.62;;
21014;SDS011;19207;-23.482;-46.500;2023-03-21T06:03:36;12.00;;;8.05;;
21014;SDS011;19207;-23.482;-46.500;2023-03-21T06:06:23;10.98;;;7.60;;
21014;SDS011;19207;-23.482;-46.500;2023-03-21T06:09:13;21.50;;;8.07;;
21014;SDS011;19207;-23.482;-46.500;2023-03-21T06:12:06;14.52;;;7.78;;
21014;SDS011;19207;-23.482;-46.500;2023-03-21T06:14:53;11.70;;;7.65;;
21014;SDS011;19207;-23.482;-46.500;2023-03-21T06:17:40;11.57;;;7.40;;
21014;SDS011;19207;-23.482;-46.500;2023-03-21T06:20:36;13.98;;;7.90;;
21014;SDS011;19207;-23.482;-46.500;2023-03-21T06:23:22;15.02;;;8.90;;
21014;SDS011;19207;-23.482;-46.500;2023-03-21T06:26:09;17.45;;;9.90;;
21014;SDS011;19207;-23.482;-46.500;2023-03-21T06:28:56;16.73;;;9.13;;
21014;SDS011;19207;-23.482;-46.500;2023-03-21T06:31:43;19.37;;;9.75;;
21014;SDS011;19207;-23.482;-46.500;2023-03-21T06:34:36;23.92;;;10.05;;
21014;SDS011;19207;-23.482;-46.500;2023-03-21T06:37:22;17.92;;;8.95;;
21014;SDS011;19207;-23.482;-46.500;2023-03-21T06:40:10;16.42;;;8.95;;
21014;SDS011;19207;-23.482;-46.500;2023-03-21T06:42:57;16.08;;;8.73;;
21014;SDS011;19207;-23.482;-46.500;2023-03-21T06:45:44;13.80;;;8.32;;
21014;SDS011;19207;-23.482;-46.500;2023-03-21T06:48:31;11.63;;;8.30;;
21014;SDS011;19207;-23.482;-46.500;2023-03-21T06:51:18;16.25;;;8.90;;
21014;SDS011;19207;-23.482;-46.500;2023-03-21T06:54:05;13.15;;;8.90;;
21014;SDS011;19207;-23.482;-46.500;2023-03-21T06:56:52;13.68;;;9.45;;
21014;SDS011;19207;-23.482;-46.500;2023-03-21T06:59:40;14.20;;;9.23;;
21014;SDS011;19207;-23.482;-46.500;2023-03-21T07:02:27;15.40;;;9.30;;
21014;SDS011;19207;-23.482;-46.500;2023-03-21T07:05:15;13.18;;;9.15;;
21014;SDS011;19207;-23.482;-46.500;2023-03-21T07:08:05;16.30;;;10.10;;
21014;SDS011;19207;-23.482;-46.500;2023-03-21T07:11:00;24.08;;;10.68;;
21014;SDS011;19207;-23.482;-46.500;2023-03-21T07:13:50;17.80;;;10.70;;
21014;SDS011;19207;-23.482;-46.500;2023-03-21T07:16:39;18.75;;;10.77;;
21014;SDS011;19207;-23.482;-46.500;2023-03-21T07:19:26;20.92;;;11.80;;
21014;SDS011;19207;-23.482;-46.500;2023-03-21T07:22:17;22.37;;;11.73;;
21014;SDS011;19207;-23.482;-46.500;2023-03-21T07:25:03;25.65;;;11.85;;
21014;SDS011;19207;-23.482;-46.500;2023-03-21T07:27:57;19.37;;;12.15;;
21014;SDS011;19207;-23.482;-46.500;2023-03-21T07:30:44;19.52;;;13.27;;
21014;SDS011;19207;-23.482;-46.500;2023-03-21T07:33:34;33.92;;;13.45;;
21014;SDS011;19207;-23.482;-46.500;2023-03-21T07:36:21;23.67;;;13.75;;
21014;SDS011;19207;-23.482;-46.500;2023-03-21T07:39:08;23.87;;;13.88;;
21014;SDS011;19207;-23.482;-46.500;2023-03-21T07:41:54;27.08;;;14.70;;
21014;SDS011;19207;-23.482;-46.500;2023-03-21T07:44:41;27.30;;;14.52;;
21014;SDS011;19207;-23.482;-46.500;2023-03-21T07:47:27;23.60;;;14.50;;
21014;SDS011;19207;-23.482;-46.500;2023-03-21T07:50:14;23.70;;;14.23;;
21014;SDS011;19207;-23.482;-46.500;2023-03-21T07:53:01;25.98;;;14.23;;
21014;SDS011;19207;-23.482;-46.500;2023-03-21T07:55:51;32.97;;;14.82;;
21014;SDS011;19207;-23.482;-46.500;2023-03-21T07:58:40;29.73;;;14.27;;
21014;SDS011;19207;-23.482;-46.500;2023-03-21T08:01:35;27.40;;;15.05;;
21014;SDS011;19207;-23.482;-46.500;2023-03-21T08:04:22;31.80;;;16.02;;
21014;SDS011;19207;-23.482;-46.500;2023-03-21T08:07:10;33.03;;;16.48;;
21014;SDS011;19207;-23.482;-46.500;2023-03-21T08:09:57;35.45;;;16.80;;
21014;SDS011;19207;-23.482;-46.500;2023-03-21T08:12:44;32.10;;;18.42;;
21014;SDS011;19207;-23.482;-46.500;2023-03-21T08:15:31;29.08;;;18.45;;
21014;SDS011;19207;-23.482;-46.500;2023-03-21T08:18:17;34.63;;;19.17;;
21014;SDS011;19207;-23.482;-46.500;2023-03-21T08:21:04;32.13;;;18.02;;
21014;SDS011;19207;-23.482;-46.500;2023-03-21T08:23:51;27.77;;;16.23;;
21014;SDS011;19207;-23.482;-46.500;2023-03-21T08:26:44;28.42;;;17.37;;
21014;SDS011;19207;-23.482;-46.500;2023-03-21T08:29:31;40.38;;;18.48;;
21014;SDS011;19207;-23.482;-46.500;2023-03-21T08:32:18;29.98;;;16.83;;
21014;SDS011;19207;-23.482;-46.500;2023-03-21T08:35:05;36.40;;;17.15;;
21014;SDS011;19207;-23.482;-46.500;2023-03-21T08:37:56;39.90;;;17.23;;
21014;SDS011;19207;-23.482;-46.500;2023-03-21T08:40:42;36.83;;;16.98;;
21014;SDS011;19207;-23.482;-46.500;2023-03-21T08:43:29;30.92;;;16.58;;
21014;SDS011;19207;-23.482;-46.500;2023-03-21T08:46:16;39.15;;;16.98;;
21014;SDS011;19207;-23.482;-46.500;2023-03-21T08:49:03;28.40;;;16.23;;
21014;SDS011;19207;-23.482;-46.500;2023-03-21T08:51:54;28.50;;;15.20;;
21014;SDS011;19207;-23.482;-46.500;2023-03-21T08:54:40;40.30;;;18.95;;
21014;SDS011;19207;-23.482;-46.500;2023-03-21T08:57:29;30.55;;;18.62;;
21014;SDS011;19207;-23.482;-46.500;2023-03-21T09:00:17;29.42;;;17.42;;
21014;SDS011;19207;-23.482;-46.500;2023-03-21T09:03:07;39.47;;;22.15;;
21014;SDS011;19207;-23.482;-46.500;2023-03-21T09:05:55;35.50;;;19.20;;
21014;SDS011;19207;-23.482;-46.500;2023-03-21T09:08:43;46.25;;;19.75;;
21014;SDS011;19207;-23.482;-46.500;2023-03-21T09:11:30;38.28;;;18.55;;
21014;SDS011;19207;-23.482;-46.500;2023-03-21T09:14:17;29.65;;;18.35;;
21014;SDS011;19207;-23.482;-46.500;2023-03-21T09:17:07;40.35;;;20.70;;
21014;SDS011;19207;-23.482;-46.500;2023-03-21T09:19:54;43.90;;;22.08;;
21014;SDS011;19207;-23.482;-46.500;2023-03-21T09:22:47;40.47;;;22.23;;
21014;SDS011;19207;-23.482;-46.500;2023-03-21T09:25:34;45.63;;;22.73;;
21014;SDS011;19207;-23.482;-46.500;2023-03-21T09:28:21;40.83;;;21.25;;
21014;SDS011;19207;-23.482;-46.500;2023-03-21T09:31:09;52.00;;;25.48;;
21014;SDS011;19207;-23.482;-46.500;2023-03-21T09:33:56;54.63;;;26.02;;
21014;SDS011;19207;-23.482;-46.500;2023-03-21T09:36:48;52.35;;;26.40;;
21014;SDS011;19207;-23.482;-46.500;2023-03-21T09:39:39;74.00;;;30.88;;
21014;SDS011;19207;-23.482;-46.500;2023-03-21T09:42:48;67.80;;;33.13;;
21014;SDS011;19207;-23.482;-46.500;2023-03-21T09:48:55;55.65;;;25.23;;
21014;SDS011;19207;-23.482;-46.500;2023-03-21T09:51:42;49.22;;;23.00;;
21014;SDS011;19207;-23.482;-46.500;2023-03-21T09:54:47;39.78;;;20.00;;
21014;SDS011;19207;-23.482;-46.500;2023-03-21T09:57:55;30.52;;;17.92;;
21014;SDS011;19207;-23.482;-46.500;2023-03-21T10:00:50;36.58;;;15.70;;
21014;SDS011;19207;-23.482;-46.500;2023-03-21T10:03:53;30.90;;;11.60;;
21014;SDS011;19207;-23.482;-46.500;2023-03-21T10:06:56;21.15;;;10.13;;
21014;SDS011;19207;-23.482;-46.500;2023-03-21T10:09:45;19.67;;;11.12;;
21014;SDS011;19207;-23.482;-46.500;2023-03-21T10:12:35;21.00;;;10.35;;
21014;SDS011;19207;-23.482;-46.500;2023-03-21T10:15:27;24.33;;;11.32;;
21014;SDS011;19207;-23.482;-46.500;2023-03-21T10:18:21;33.20;;;10.73;;
21014;SDS011;19207;-23.482;-46.500;2023-03-21T10:21:19;22.92;;;10.55;;
21014;SDS011;19207;-23.482;-46.500;2023-03-21T10:24:25;25.30;;;10.80;;
21014;SDS011;19207;-23.482;-46.500;2023-03-21T10:27:12;31.65;;;10.18;;
21014;SDS011;19207;-23.482;-46.500;2023-03-21T10:30:05;21.17;;;10.57;;
21014;SDS011;19207;-23.482;-46.500;2023-03-21T10:32:58;17.65;;;10.40;;
21014;SDS011;19207;-23.482;-46.500;2023-03-21T10:35:57;17.77;;;10.55;;
21014;SDS011;19207;-23.482;-46.500;2023-03-21T10:38:49;38.60;;;10.18;;
21014;SDS011;19207;-23.482;-46.500;2023-03-21T10:41:37;19.55;;;9.55;;
21014;SDS011;19207;-23.482;-46.500;2023-03-21T10:44:39;16.70;;;10.13;;
21014;SDS011;19207;-23.482;-46.500;2023-03-21T10:47:40;14.52;;;9.75;;
21014;SDS011;19207;-23.482;-46.500;2023-03-21T10:53:43;17.42;;;9.30;;
21014;SDS011;19207;-23.482;-46.500;2023-03-21T10:56:35;19.08;;;10.00;;
21014;SDS011;19207;-23.482;-46.500;2023-03-21T10:59:32;15.38;;;8.80;;
21014;SDS011;19207;-23.482;-46.500;2023-03-21T11:02:34;18.33;;;8.05;;
21014;SDS011;19207;-23.482;-46.500;2023-03-21T11:05:39;11.30;;;7.75;;
21014;SDS011;19207;-23.482;-46.500;2023-03-21T11:08:29;17.70;;;7.78;;
21014;SDS011;19207;-23.482;-46.500;2023-03-21T11:11:27;19.50;;;17.50;;
21014;SDS011;19207;-23.482;-46.500;2023-03-21T11:17:59;12.25;;;8.02;;
21014;SDS011;19207;-23.482;-46.500;2023-03-21T11:20:52;18.87;;;7.87;;
21014;SDS011;19207;-23.482;-46.500;2023-03-21T11:23:47;14.82;;;7.70;;
21014;SDS011;19207;-23.482;-46.500;2023-03-21T11:26:52;23.17;;;12.13;;
21014;SDS011;19207;-23.482;-46.500;2023-03-21T11:29:50;18.83;;;8.25;;
21014;SDS011;19207;-23.482;-46.500;2023-03-21T11:33:00;15.43;;;7.95;;
21014;SDS011;19207;-23.482;-46.500;2023-03-21T11:36:05;29.05;;;14.68;;
21014;SDS011;19207;-23.482;-46.500;2023-03-21T11:38:56;37.30;;;13.95;;
21014;SDS011;19207;-23.482;-46.500;2023-03-21T11:41:52;24.90;;;12.55;;
21014;SDS011;19207;-23.482;-46.500;2023-03-21T11:45:35;47.88;;;17.25;;
21014;SDS011;19207;-23.482;-46.500;2023-03-21T11:48:45;41.58;;;15.40;;
21014;SDS011;19207;-23.482;-46.500;2023-03-21T11:51:58;29.02;;;14.35;;
21014;SDS011;19207;-23.482;-46.500;2023-03-21T12:05:42;28.08;;;12.30;;
21014;SDS011;19207;-23.482;-46.500;2023-03-21T12:08:55;24.20;;;11.20;;
21014;SDS011;19207;-23.482;-46.500;2023-03-21T12:21:17;17.67;;;10.48;;
21014;SDS011;19207;-23.482;-46.500;2023-03-21T12:24:14;22.45;;;10.90;;
21014;SDS011;19207;-23.482;-46.500;2023-03-21T12:30:13;29.17;;;12.80;;
21014;SDS011;19207;-23.482;-46.500;2023-03-21T12:36:46;23.23;;;13.35;;
21014;SDS011;19207;-23.482;-46.500;2023-03-21T12:39:39;29.92;;;15.02;;
21014;SDS011;19207;-23.482;-46.500;2023-03-21T12:43:06;28.42;;;15.32;;
21014;SDS011;19207;-23.482;-46.500;2023-03-21T12:49:17;38.35;;;20.02;;
21014;SDS011;19207;-23.482;-46.500;2023-03-21T12:52:07;36.33;;;17.05;;
21014;SDS011;19207;-23.482;-46.500;2023-03-21T12:54:58;33.35;;;16.80;;
21014;SDS011;19207;-23.482;-46.500;2023-03-21T13:00:47;34.05;;;13.73;;
21014;SDS011;19207;-23.482;-46.500;2023-03-21T13:03:39;34.15;;;15.18;;
21014;SDS011;19207;-23.482;-46.500;2023-03-21T13:06:30;26.73;;;13.27;;
21014;SDS011;19207;-23.482;-46.500;2023-03-21T13:09:28;18.05;;;10.10;;
21014;SDS011;19207;-23.482;-46.500;2023-03-21T13:12:22;26.90;;;23.90;;
21014;SDS011;19207;-23.482;-46.500;2023-03-21T13:30:16;24.10;;;13.38;;
21014;SDS011;19207;-23.482;-46.500;2023-03-21T13:33:04;34.58;;;17.45;;
21014;SDS011;19207;-23.482;-46.500;2023-03-21T13:35:59;31.90;;;16.23;;
21014;SDS011;19207;-23.482;-46.500;2023-03-21T13:38:51;29.55;;;16.08;;
21014;SDS011;19207;-23.482;-46.500;2023-03-21T13:41:40;28.90;;;14.52;;
21014;SDS011;19207;-23.482;-46.500;2023-03-21T13:44:38;27.83;;;19.77;;
21014;SDS011;19207;-23.482;-46.500;2023-03-21T13:47:39;25.95;;;12.37;;
21014;SDS011;19207;-23.482;-46.500;2023-03-21T13:50:28;22.00;;;12.18;;
21014;SDS011;19207;-23.482;-46.500;2023-03-21T13:59:01;14.20;;;10.15;;
21014;SDS011;19207;-23.482;-46.500;2023-03-21T14:05:01;17.85;;;10.23;;
21014;SDS011;19207;-23.482;-46.500;2023-03-21T14:07:48;25.67;;;12.32;;
21014;SDS011;19207;-23.482;-46.500;2023-03-21T14:10:56;21.15;;;18.55;;
21014;SDS011;19207;-23.482;-46.500;2023-03-21T14:13:44;17.87;;;11.15;;
21014;SDS011;19207;-23.482;-46.500;2023-03-21T14:16:31;22.75;;;12.63;;
21014;SDS011;19207;-23.482;-46.500;2023-03-21T14:19:19;19.85;;;11.48;;
21014;SDS011;19207;-23.482;-46.500;2023-03-21T14:22:09;20.23;;;11.35;;
21014;SDS011;19207;-23.482;-46.500;2023-03-21T14:25:00;21.40;;;11.25;;
21014;SDS011;19207;-23.482;-46.500;2023-03-21T14:27:48;23.60;;;11.15;;
21014;SDS011;19207;-23.482;-46.500;2023-03-21T14:30:37;17.10;;;11.82;;
21014;SDS011;19207;-23.482;-46.500;2023-03-21T14:33:39;20.42;;;12.43;;
21014;SDS011;19207;-23.482;-46.500;2023-03-21T14:36:29;23.45;;;12.50;;
21014;SDS011;19207;-23.482;-46.500;2023-03-21T14:39:22;24.85;;;12.23;;
21014;SDS011;19207;-23.482;-46.500;2023-03-21T14:42:12;20.15;;;13.45;;
21014;SDS011;19207;-23.482;-46.500;2023-03-21T14:45:05;23.60;;;14.75;;
21014;SDS011;19207;-23.482;-46.500;2023-03-21T14:48:00;25.30;;;13.73;;
21014;SDS011;19207;-23.482;-46.500;2023-03-21T14:50:56;21.75;;;13.73;;
21014;SDS011;19207;-23.482;-46.500;2023-03-21T14:53:43;28.02;;;13.88;;
21014;SDS011;19207;-23.482;-46.500;2023-03-21T14:56:30;22.90;;;14.25;;
21014;SDS011;19207;-23.482;-46.500;2023-03-21T14:59:20;18.98;;;12.05;;
21014;SDS011;19207;-23.482;-46.500;2023-03-21T15:02:17;19.90;;;11.60;;
21014;SDS011;19207;-23.482;-46.500;2023-03-21T15:05:07;15.93;;;10.65;;
21014;SDS011;19207;-23.482;-46.500;2023-03-21T15:07:56;23.52;;;11.55;;
21014;SDS011;19207;-23.482;-46.500;2023-03-21T15:14:00;17.95;;;10.93;;
21014;SDS011;19207;-23.482;-46.500;2023-03-21T15:16:48;29.12;;;15.90;;
21014;SDS011;19207;-23.482;-46.500;2023-03-21T15:19:36;23.60;;;14.40;;
21014;SDS011;19207;-23.482;-46.500;2023-03-21T15:22:36;24.02;;;14.05;;
21014;SDS011;19207;-23.482;-46.500;2023-03-21T15:25:25;26.80;;;14.82;;
21014;SDS011;19207;-23.482;-46.500;2023-03-21T15:28:12;25.77;;;15.70;;
21014;SDS011;19207;-23.482;-46.500;2023-03-21T15:30:59;23.12;;;14.20;;
21014;SDS011;19207;-23.482;-46.500;2023-03-21T15:33:47;24.70;;;14.63;;
21014;SDS011;19207;-23.482;-46.500;2023-03-21T15:36:35;23.58;;;14.52;;
21014;SDS011;19207;-23.482;-46.500;2023-03-21T15:39:22;23.80;;;13.30;;
21014;SDS011;19207;-23.482;-46.500;2023-03-21T15:42:27;24.10;;;14.45;;
21014;SDS011;19207;-23.482;-46.500;2023-03-21T15:45:25;30.55;;;15.43;;
21014;SDS011;19207;-23.482;-46.500;2023-03-21T15:48:13;27.55;;;15.25;;
21014;SDS011;19207;-23.482;-46.500;2023-03-21T15:51:01;33.92;;;16.27;;
21014;SDS011;19207;-23.482;-46.500;2023-03-21T15:53:50;34.33;;;17.00;;
21014;SDS011;19207;-23.482;-46.500;2023-03-21T15:56:40;30.85;;;17.15;;
21014;SDS011;19207;-23.482;-46.500;2023-03-21T15:59:33;31.10;;;15.77;;
21014;SDS011;19207;-23.482;-46.500;2023-03-21T16:02:23;32.35;;;16.05;;
21014;SDS011;19207;-23.482;-46.500;2023-03-21T16:08:25;27.55;;;17.65;;
21014;SDS011;19207;-23.482;-46.500;2023-03-21T16:11:17;27.05;;;17.67;;
21014;SDS011;19207;-23.482;-46.500;2023-03-21T16:14:04;28.73;;;15.82;;
21014;SDS011;19207;-23.482;-46.500;2023-03-21T16:16:51;29.27;;;15.88;;
21014;SDS011;19207;-23.482;-46.500;2023-03-21T16:19:38;26.55;;;15.95;;
21014;SDS011;19207;-23.482;-46.500;2023-03-21T16:22:26;26.40;;;14.60;;
21014;SDS011;19207;-23.482;-46.500;2023-03-21T16:25:15;22.73;;;14.45;;
21014;SDS011;19207;-23.482;-46.500;2023-03-21T16:28:02;24.75;;;14.68;;
21014;SDS011;19207;-23.482;-46.500;2023-03-21T16:30:49;23.55;;;15.02;;
21014;SDS011;19207;-23.482;-46.500;2023-03-21T16:33:36;18.27;;;12.88;;
21014;SDS011;19207;-23.482;-46.500;2023-03-21T16:36:31;26.30;;;13.88;;
21014;SDS011;19207;-23.482;-46.500;2023-03-21T16:39:22;28.00;;;13.35;;
21014;SDS011;19207;-23.482;-46.500;2023-03-21T16:42:10;15.02;;;11.93;;
21014;SDS011;19207;-23.482;-46.500;2023-03-21T16:44:57;25.92;;;12.35;;
21014;SDS011;19207;-23.482;-46.500;2023-03-21T16:47:43;20.40;;;12.85;;
21014;SDS011;19207;-23.482;-46.500;2023-03-21T16:50:32;27.05;;;15.48;;
21014;SDS011;19207;-23.482;-46.500;2023-03-21T16:53:18;28.08;;;19.15;;
21014;SDS011;19207;-23.482;-46.500;2023-03-21T16:56:28;25.48;;;14.20;;
21014;SDS011;19207;-23.482;-46.500;2023-03-21T16:59:14;25.70;;;16.83;;
21014;SDS011;19207;-23.482;-46.500;2023-03-21T17:02:13;34.47;;;18.45;;
21014;SDS011;19207;-23.482;-46.500;2023-03-21T17:05:03;29.50;;;18.92;;
21014;SDS011;19207;-23.482;-46.500;2023-03-21T17:07:52;27.15;;;18.73;;
21014;SDS011;19207;-23.482;-46.500;2023-03-21T17:10:40;36.70;;;18.05;;
21014;SDS011;19207;-23.482;-46.500;2023-03-21T17:13:27;30.62;;;17.95;;
21014;SDS011;19207;-23.482;-46.500;2023-03-21T17:16:14;26.67;;;16.25;;
21014;SDS011;19207;-23.482;-46.500;2023-03-21T17:19:01;25.98;;;15.77;;
21014;SDS011;19207;-23.482;-46.500;2023-03-21T17:21:48;24.85;;;15.43;;
21014;SDS011;19207;-23.482;-46.500;2023-03-21T17:24:34;26.33;;;14.93;;
21014;SDS011;19207;-23.482;-46.500;2023-03-21T17:27:21;25.88;;;14.32;;
21014;SDS011;19207;-23.482;-46.500;2023-03-21T17:33:02;22.83;;;13.20;;
21014;SDS011;19207;-23.482;-46.500;2023-03-21T17:35:49;18.10;;;12.88;;
21014;SDS011;19207;-23.482;-46.500;2023-03-21T17:38:35;17.98;;;12.10;;
21014;SDS011;19207;-23.482;-46.500;2023-03-21T17:41:22;23.62;;;12.90;;
21014;SDS011;19207;-23.482;-46.500;2023-03-21T17:44:10;20.92;;;12.60;;
21014;SDS011;19207;-23.482;-46.500;2023-03-21T17:46:58;26.33;;;23.20;;
21014;SDS011;19207;-23.482;-46.500;2023-03-21T17:49:46;19.35;;;11.00;;
21014;SDS011;19207;-23.482;-46.500;2023-03-21T17:52:33;15.18;;;11.35;;
21014;SDS011;19207;-23.482;-46.500;2023-03-21T17:55:22;12.52;;;10.52;;